createdAt,value
2022-09-06T00:00:16.992Z,4.70
2022-09-06T00:02:44.292Z,4.13
2022-09-06T00:05:12.601Z,4.40
2022-09-06T00:07:39.860Z,4.13
2022-09-06T00:10:07.678Z,4.15
2022-09-06T00:12:34.965Z,4.50
2022-09-06T00:15:02.251Z,4.10
2022-09-06T00:17:29.053Z,4.30
2022-09-06T00:19:55.793Z,4.05
2022-09-06T00:22:22.662Z,4.38
2022-09-06T00:24:49.528Z,4.43
2022-09-06T00:27:16.374Z,4.50
2022-09-06T00:29:43.249Z,4.13
2022-09-06T00:32:10.177Z,3.92
2022-09-06T00:34:37.020Z,4.27
2022-09-06T00:37:03.850Z,4.57
2022-09-06T00:39:30.709Z,4.67
2022-09-06T00:41:57.678Z,4.57
2022-09-06T00:44:24.510Z,4.22
2022-09-06T00:46:54.136Z,4.25
2022-09-06T00:49:32.671Z,3.83
2022-09-06T00:52:04.760Z,4.30
2022-09-06T00:54:32.385Z,4.73
2022-09-06T00:57:00.109Z,4.60
2022-09-06T00:59:33.203Z,4.80
2022-09-06T01:02:00.375Z,4.20
2022-09-06T01:04:28.319Z,4.20
2022-09-06T01:07:19.742Z,4.20
2022-09-06T01:09:58.363Z,4.50
2022-09-06T01:12:25.118Z,4.50
2022-09-06T01:15:27.640Z,4.93
2022-09-06T01:18:19.289Z,4.78
2022-09-06T01:20:59.215Z,4.50
2022-09-06T01:23:41.094Z,4.30
2022-09-06T01:26:16.795Z,4.30
2022-09-06T01:28:46.264Z,4.60
2022-09-06T01:31:42.798Z,5.03
2022-09-06T01:34:29.893Z,4.63
2022-09-06T01:37:10.589Z,4.40
2022-09-06T01:39:39.190Z,4.57
2022-09-06T01:42:08.838Z,4.30
2022-09-06T01:44:37.503Z,4.87
2022-09-06T01:47:13.135Z,4.60
2022-09-06T01:50:15.118Z,4.83
2022-09-06T01:52:51.905Z,4.17
2022-09-06T01:55:24.757Z,4.28
2022-09-06T01:58:06.559Z,4.47
2022-09-06T02:00:41.460Z,4.73
2022-09-06T02:03:29.528Z,4.60
2022-09-06T02:06:04.394Z,4.50
2022-09-06T02:08:55.640Z,4.17
2022-09-06T02:11:27.754Z,4.67
2022-09-06T02:13:59.463Z,4.07
2022-09-06T02:16:30.888Z,4.77
2022-09-06T02:19:21.026Z,4.67
2022-09-06T02:21:49.293Z,4.70
2022-09-06T02:24:21.718Z,4.40
2022-09-06T02:26:49.261Z,4.27
2022-09-06T02:29:17.513Z,4.30
2022-09-06T02:32:00.205Z,4.67
2022-09-06T02:34:27.132Z,4.40
2022-09-06T02:36:55.622Z,4.83
2022-09-06T02:39:22.919Z,4.63
2022-09-06T02:41:49.812Z,5.07
2022-09-06T02:44:16.719Z,4.50
2022-09-06T02:46:43.532Z,4.80
2022-09-06T02:49:10.310Z,4.63
2022-09-06T02:51:39.183Z,4.97
2022-09-06T02:54:07.239Z,4.77
2022-09-06T02:56:36.664Z,4.70
2022-09-06T02:59:07.293Z,4.30
2022-09-06T03:01:34.457Z,4.93
2022-09-06T03:04:02.154Z,4.40
2022-09-06T03:06:28.960Z,5.10
2022-09-06T03:08:55.759Z,4.70
2022-09-06T03:11:22.547Z,4.70
2022-09-06T03:13:51.110Z,4.40
2022-09-06T03:16:18.798Z,4.57
2022-09-06T03:18:45.968Z,4.60
2022-09-06T03:21:13.400Z,4.80
2022-09-06T03:23:40.543Z,4.93
2022-09-06T03:26:08.349Z,4.40
2022-09-06T03:28:35.239Z,4.20
2022-09-06T03:31:02.068Z,5.00
2022-09-06T03:33:28.928Z,4.87
2022-09-06T03:36:00.537Z,4.80
2022-09-06T03:38:28.822Z,4.60
2022-09-06T03:40:55.869Z,5.17
2022-09-06T03:43:24.593Z,4.50
2022-09-06T03:45:59.787Z,4.67
2022-09-06T03:48:28.897Z,4.93
2022-09-06T03:50:57.344Z,5.00
2022-09-06T03:53:26.028Z,5.00
2022-09-06T03:55:54.610Z,4.90
2022-09-06T03:58:23.071Z,4.53
2022-09-06T04:00:50.523Z,5.10
2022-09-06T04:03:19.522Z,5.13
2022-09-06T04:05:46.739Z,4.97
2022-09-06T04:08:13.876Z,5.17
2022-09-06T04:10:41.042Z,4.47
2022-09-06T04:13:07.814Z,5.27
2022-09-06T04:15:34.705Z,5.47
2022-09-06T04:18:03.915Z,4.93
2022-09-06T04:20:32.825Z,5.07
2022-09-06T04:22:59.614Z,5.27
2022-09-06T04:25:26.495Z,5.23
2022-09-06T04:27:53.336Z,5.20
2022-09-06T04:30:20.167Z,4.87
2022-09-06T04:32:47.018Z,5.13
2022-09-06T04:35:13.907Z,4.43
2022-09-06T04:37:40.666Z,5.00
2022-09-06T04:40:08.138Z,4.53
2022-09-06T04:42:35.093Z,4.70
2022-09-06T04:45:01.986Z,4.63
2022-09-06T04:47:28.856Z,5.00
2022-09-06T04:49:55.653Z,5.30
2022-09-06T04:52:23.618Z,5.00
2022-09-06T04:54:52.007Z,5.00
2022-09-06T04:57:18.810Z,5.37
2022-09-06T04:59:45.610Z,5.20
2022-09-06T05:02:12.445Z,5.23
2022-09-06T05:04:39.281Z,5.80
2022-09-06T05:07:08.197Z,5.90
2022-09-06T05:09:35.714Z,5.93
2022-09-06T05:12:02.903Z,5.93
2022-09-06T05:14:30.048Z,5.77
2022-09-06T05:16:56.979Z,6.10
2022-09-06T05:19:23.817Z,6.20
2022-09-06T05:21:53.722Z,5.82
2022-09-06T05:24:20.581Z,5.83
2022-09-06T05:26:47.467Z,5.90
2022-09-06T05:29:14.421Z,5.80
2022-09-06T05:31:41.241Z,6.27
2022-09-06T05:34:08.135Z,6.27
2022-09-06T05:36:35.493Z,6.10
2022-09-06T05:39:02.374Z,6.23
2022-09-06T05:41:29.146Z,5.90
2022-09-06T05:43:55.977Z,5.57
2022-09-06T05:46:22.820Z,6.03
2022-09-06T05:49:00.417Z,6.30
2022-09-06T05:51:27.531Z,6.20
2022-09-06T05:53:54.394Z,6.63
2022-09-06T05:56:22.310Z,6.50
2022-09-06T05:58:49.135Z,5.90
2022-09-06T06:01:23.183Z,5.20
2022-09-06T06:04:02.089Z,5.47
2022-09-06T06:06:34.233Z,5.00
2022-09-06T06:09:01.102Z,5.27
2022-09-06T06:11:30.723Z,5.40
2022-09-06T06:13:58.904Z,4.93
2022-09-06T06:16:26.015Z,4.80
2022-09-06T06:18:53.002Z,4.87
2022-09-06T06:21:21.612Z,4.40
2022-09-06T06:23:52.193Z,4.60
2022-09-06T06:26:19.868Z,4.55
2022-09-06T06:28:46.796Z,4.70
2022-09-06T06:31:14.364Z,4.40
2022-09-06T06:33:41.462Z,4.03
2022-09-06T06:36:21.747Z,4.90
2022-09-06T06:38:49.813Z,5.38
2022-09-06T06:41:19.496Z,5.10
2022-09-06T06:43:46.388Z,4.35
2022-09-06T06:46:15.965Z,4.40
2022-09-06T06:48:43.893Z,4.30
2022-09-06T06:51:20.745Z,4.70
2022-09-06T06:53:48.907Z,4.30
2022-09-06T06:56:23.304Z,4.72
2022-09-06T06:58:52.557Z,4.60
2022-09-06T07:01:21.315Z,4.40
2022-09-06T07:03:49.190Z,4.35
2022-09-06T07:06:16.973Z,5.80
2022-09-06T07:08:44.226Z,6.15
2022-09-06T07:11:12.788Z,6.28
2022-09-06T07:13:39.666Z,6.40
2022-09-06T07:16:23.484Z,5.82
2022-09-06T07:18:54.725Z,6.47
2022-09-06T07:21:42.347Z,5.65
2022-09-06T07:24:09.575Z,6.15
2022-09-06T07:26:38.483Z,5.85
2022-09-06T07:29:06.978Z,6.57
2022-09-06T07:34:22.308Z,6.55
2022-09-06T07:36:52.999Z,6.78
2022-09-06T07:39:19.836Z,7.05
2022-09-06T07:41:46.715Z,6.68
2022-09-06T07:44:13.494Z,7.05
2022-09-06T07:46:40.367Z,6.85
2022-09-06T07:49:07.505Z,6.80
2022-09-06T07:51:34.279Z,7.10
2022-09-06T07:54:26.217Z,7.18
2022-09-06T07:56:48.107Z,7.88
2022-09-06T07:59:15.206Z,7.32
2022-09-06T08:01:42.334Z,7.25
2022-09-06T08:04:14.211Z,7.25
2022-09-06T08:09:35.451Z,7.32
2022-09-06T08:12:06.798Z,7.05
2022-09-06T08:14:34.265Z,6.85
2022-09-06T08:17:01.522Z,7.00
2022-09-06T08:19:28.387Z,6.53
2022-09-06T08:21:56.022Z,7.13
2022-09-06T08:24:23.092Z,7.05
2022-09-06T08:26:50.265Z,6.43
2022-09-06T08:29:17.268Z,6.80
2022-09-06T08:31:45.082Z,6.75
2022-09-06T08:34:15.969Z,6.50
2022-09-06T08:36:44.077Z,6.85
2022-09-06T08:39:11.537Z,6.18
2022-09-06T08:42:01.362Z,5.80
2022-09-06T08:47:24.375Z,5.78
2022-09-06T08:50:03.531Z,5.68
2022-09-06T08:53:00.117Z,5.80
2022-09-06T08:55:37.829Z,5.80
2022-09-06T08:58:19.770Z,4.75
2022-09-06T09:01:03.437Z,5.28
2022-09-06T09:03:33.317Z,4.75
2022-09-06T09:06:01.673Z,5.00
2022-09-06T09:08:50.221Z,5.22
2022-09-06T09:11:23.240Z,5.20
2022-09-06T09:14:05.129Z,5.00
2022-09-06T09:16:32.808Z,5.00
2022-09-06T09:19:02.839Z,5.00
2022-09-06T09:21:34.137Z,4.60
2022-09-06T09:24:07.328Z,4.90
2022-09-06T09:26:54.966Z,4.07
2022-09-06T09:29:26.732Z,4.18
2022-09-06T09:31:56.072Z,4.25
2022-09-06T09:34:40.452Z,4.13
2022-09-06T09:40:33.431Z,4.60
2022-09-06T09:43:29.683Z,4.35
2022-09-06T09:46:30.676Z,3.42
2022-09-06T09:49:01.412Z,3.67
2022-09-06T09:51:29.424Z,3.47
2022-09-06T09:54:05.491Z,3.70
2022-09-06T09:56:53.894Z,3.30
2022-09-06T09:59:27.802Z,3.33
2022-09-06T10:02:02.957Z,3.22
2022-09-06T10:04:44.988Z,3.60
2022-09-06T10:07:18.474Z,3.40
2022-09-06T10:09:58.392Z,3.20
2022-09-06T10:12:34.354Z,3.45
2022-09-06T10:15:03.730Z,3.42
2022-09-06T10:17:33.639Z,3.03
2022-09-06T10:20:09.758Z,3.28
2022-09-06T10:22:55.533Z,3.60
2022-09-06T10:25:50.836Z,3.58
2022-09-06T10:28:29.240Z,3.67
2022-09-06T10:31:20.467Z,3.50
2022-09-06T10:33:50.502Z,3.13
2022-09-06T10:36:24.277Z,3.30
2022-09-06T10:39:42.058Z,3.13
2022-09-06T10:42:29.069Z,3.10
2022-09-06T10:45:17.071Z,3.00
2022-09-06T10:48:14.421Z,5.95
2022-09-06T10:50:41.711Z,3.05
2022-09-06T10:53:27.305Z,3.10
2022-09-06T10:56:04.020Z,3.30
2022-09-06T11:02:08.548Z,3.00
2022-09-06T11:07:38.176Z,2.85
2022-09-06T11:10:10.486Z,2.97
2022-09-06T11:12:43.439Z,2.90
2022-09-06T11:15:14.468Z,3.00
2022-09-06T11:18:04.308Z,2.78
2022-09-06T11:20:37.136Z,2.35
2022-09-06T11:23:22.465Z,2.63
2022-09-06T11:26:22.780Z,3.20
2022-09-06T11:28:55.256Z,3.00
2022-09-06T11:34:31.327Z,3.20
2022-09-06T11:37:00.152Z,2.90
2022-09-06T11:42:50.886Z,2.90
2022-09-06T11:45:21.719Z,2.90
2022-09-06T11:47:50.419Z,3.10
2022-09-06T11:50:20.664Z,3.00
2022-09-06T11:53:02.252Z,2.45
2022-09-06T11:55:45.300Z,3.10
2022-09-06T11:58:17.879Z,2.97
2022-09-06T12:00:46.565Z,2.60
2022-09-06T12:04:07.441Z,2.63
2022-09-06T12:07:08.017Z,3.15
2022-09-06T12:09:44.330Z,3.42
2022-09-06T12:12:16.221Z,3.40
2022-09-06T12:14:49.210Z,3.10
2022-09-06T12:17:20.481Z,2.80
2022-09-06T12:19:56.109Z,2.83
2022-09-06T12:22:40.269Z,2.85
2022-09-06T12:25:36.266Z,2.90
2022-09-06T12:28:05.481Z,2.97
2022-09-06T12:30:32.989Z,2.95
2022-09-06T12:33:01.214Z,3.00
2022-09-06T12:38:24.682Z,3.00
2022-09-06T12:40:56.487Z,3.28
2022-09-06T12:43:23.306Z,3.45
2022-09-06T12:45:52.323Z,3.10
2022-09-06T12:48:35.276Z,3.00
2022-09-06T12:51:20.117Z,3.17
2022-09-06T12:53:54.497Z,3.00
2022-09-06T12:56:23.533Z,3.10
2022-09-06T12:58:50.390Z,3.33
2022-09-06T13:01:26.759Z,2.80
2022-09-06T13:04:02.739Z,2.78
2022-09-06T13:06:33.752Z,2.97
2022-09-06T13:09:01.719Z,2.85
2022-09-06T13:11:36.841Z,2.97
2022-09-06T13:14:16.896Z,3.50
2022-09-06T13:16:52.198Z,2.83
2022-09-06T13:19:39.209Z,3.22
2022-09-06T13:22:08.750Z,3.00
2022-09-06T13:24:35.553Z,3.30
2022-09-06T13:27:23.627Z,2.88
2022-09-06T13:30:06.787Z,2.88
2022-09-06T13:32:35.194Z,2.90
2022-09-06T13:35:03.823Z,3.15
2022-09-06T13:37:33.898Z,2.80
2022-09-06T13:40:05.115Z,2.83
2022-09-06T13:42:34.081Z,3.03
2022-09-06T13:45:26.944Z,3.30
2022-09-06T13:48:07.635Z,3.35
2022-09-06T13:50:42.118Z,2.80
2022-09-06T13:53:08.952Z,3.45
2022-09-06T13:55:35.787Z,3.22
2022-09-06T13:58:03.274Z,2.80
2022-09-06T14:00:30.055Z,3.10
2022-09-06T14:02:57.008Z,3.25
2022-09-06T14:05:23.808Z,3.42
2022-09-06T14:07:50.645Z,3.22
2022-09-06T14:10:19.144Z,2.80
2022-09-06T14:12:45.983Z,3.10
2022-09-06T14:15:13.484Z,3.50
2022-09-06T14:17:40.506Z,2.92
2022-09-06T14:20:08.013Z,3.00
2022-09-06T14:22:35.084Z,3.22
2022-09-06T14:25:02.059Z,3.17
2022-09-06T14:27:28.944Z,3.33
2022-09-06T14:29:55.757Z,3.25
2022-09-06T14:32:22.922Z,3.10
2022-09-06T14:34:49.935Z,3.10
2022-09-06T14:37:16.788Z,3.00
2022-09-06T14:39:43.692Z,3.00
2022-09-06T14:42:10.593Z,3.30
2022-09-06T14:44:37.425Z,3.45
2022-09-06T14:47:04.452Z,2.88
2022-09-06T14:49:31.307Z,3.17
2022-09-06T14:51:58.142Z,3.00
2022-09-06T14:54:28.643Z,3.15
2022-09-06T14:56:56.547Z,3.08
2022-09-06T14:59:23.493Z,2.78
2022-09-06T15:01:51.207Z,3.10
2022-09-06T15:04:18.318Z,3.08
2022-09-06T15:06:47.309Z,2.90
2022-09-06T15:09:16.157Z,3.03
2022-09-06T15:11:46.069Z,3.30
2022-09-06T15:14:22.477Z,2.65
2022-09-06T15:16:55.959Z,2.95
2022-09-06T15:19:24.831Z,2.90
2022-09-06T15:21:51.790Z,3.40
2022-09-06T15:24:19.231Z,2.78
2022-09-06T15:26:46.180Z,2.65
2022-09-06T15:29:14.808Z,2.90
2022-09-06T15:31:43.006Z,2.67
2022-09-06T15:34:10.248Z,2.70
2022-09-06T15:36:37.691Z,2.50
2022-09-06T15:39:06.012Z,2.47
2022-09-06T15:41:35.670Z,2.60
2022-09-06T15:44:10.496Z,2.60
2022-09-06T15:46:43.166Z,3.72
2022-09-06T15:49:12.777Z,3.45
2022-09-06T15:51:40.642Z,3.30
2022-09-06T15:54:08.016Z,3.45
2022-09-06T15:56:35.221Z,2.95
2022-09-06T15:59:02.177Z,3.53
2022-09-06T16:01:29.214Z,3.35
2022-09-06T16:04:05.554Z,3.78
2022-09-06T16:06:38.189Z,3.30
2022-09-06T16:09:08.516Z,3.83
2022-09-06T16:11:36.938Z,3.17
2022-09-06T16:14:09.646Z,3.70
2022-09-06T16:16:36.724Z,3.50
2022-09-06T16:19:04.126Z,3.58
2022-09-06T16:21:32.783Z,3.70
2022-09-06T16:24:08.181Z,3.67
2022-09-06T16:26:37.757Z,3.92
2022-09-06T16:29:06.840Z,3.63
2022-09-06T16:31:39.159Z,3.47
2022-09-06T16:34:07.961Z,4.32
2022-09-06T16:36:34.970Z,3.20
2022-09-06T16:39:02.134Z,3.63
2022-09-06T16:41:37.363Z,3.80
2022-09-06T16:44:04.329Z,5.05
2022-09-06T16:46:31.236Z,3.95
2022-09-06T16:49:04.589Z,3.30
2022-09-06T16:51:32.319Z,3.70
2022-09-06T16:54:00.662Z,3.90
2022-09-06T16:56:31.890Z,3.30
2022-09-06T16:59:00.859Z,3.70
2022-09-06T17:01:29.858Z,3.63
2022-09-06T17:03:57.603Z,3.47
2022-09-06T17:06:24.922Z,3.60
2022-09-06T17:08:52.096Z,4.15
2022-09-06T17:11:21.652Z,3.72
2022-09-06T17:13:51.252Z,3.78
2022-09-06T17:16:40.653Z,4.28
2022-09-06T17:19:09.655Z,4.35
2022-09-06T17:21:39.205Z,3.90
2022-09-06T17:24:07.298Z,3.75
2022-09-06T17:26:36.245Z,4.18
2022-09-06T17:29:03.367Z,3.85
2022-09-06T17:31:30.394Z,3.70
2022-09-06T17:33:59.757Z,3.70
2022-09-06T17:36:30.464Z,3.90
2022-09-06T17:39:08.098Z,3.58
2022-09-06T17:41:45.792Z,3.72
2022-09-06T17:44:14.959Z,3.97
2022-09-06T17:46:56.976Z,4.07
2022-09-06T17:49:30.732Z,3.42
2022-09-06T17:51:58.448Z,3.97
2022-09-06T17:54:25.522Z,3.60
2022-09-06T17:56:52.370Z,3.92
2022-09-06T17:59:19.762Z,3.97
2022-09-06T18:01:47.153Z,4.32
2022-09-06T18:04:14.558Z,3.90
2022-09-06T18:06:43.695Z,4.10
2022-09-06T18:09:16.851Z,4.78
2022-09-06T18:11:47.061Z,4.03
2022-09-06T18:14:17.351Z,4.35
2022-09-06T18:16:49.346Z,4.43
2022-09-06T18:19:17.938Z,4.18
2022-09-06T18:21:45.554Z,3.65
2022-09-06T18:24:15.199Z,3.50
2022-09-06T18:26:43.463Z,3.75
2022-09-06T18:29:16.779Z,4.38
2022-09-06T18:31:44.460Z,4.03
2022-09-06T18:34:12.780Z,4.05
2022-09-06T18:36:40.378Z,4.40
2022-09-06T18:39:07.742Z,21.25
2022-09-06T18:41:53.431Z,5.50
2022-09-06T18:44:20.628Z,4.57
2022-09-06T18:46:48.772Z,4.57
2022-09-06T18:49:16.905Z,4.60
2022-09-06T18:51:45.707Z,4.35
2022-09-06T18:54:13.226Z,4.55
2022-09-06T18:56:42.047Z,4.45
2022-09-06T18:59:10.855Z,4.47
2022-09-06T19:01:38.238Z,4.60
2022-09-06T19:04:06.442Z,4.75
2022-09-06T19:06:35.211Z,4.28
2022-09-06T19:09:05.429Z,4.50
2022-09-06T19:11:32.357Z,4.95
2022-09-06T19:13:59.571Z,4.22
2022-09-06T19:16:28.546Z,4.70
2022-09-06T19:18:56.986Z,4.53
2022-09-06T19:21:25.583Z,4.40
2022-09-06T19:24:01.649Z,4.80
2022-09-06T19:26:34.894Z,5.03
2022-09-06T19:29:04.184Z,4.53
2022-09-06T19:31:34.730Z,4.95
2022-09-06T19:34:02.460Z,4.68
2022-09-06T19:36:31.566Z,5.38
2022-09-06T19:39:07.928Z,4.20
2022-09-06T19:41:38.703Z,4.72
2022-09-06T19:44:08.534Z,4.90
2022-09-06T19:46:35.973Z,5.05
2022-09-06T19:49:03.536Z,5.10
2022-09-06T19:51:30.750Z,4.95
2022-09-06T19:53:58.179Z,5.03
2022-09-06T19:56:27.758Z,5.00
2022-09-06T19:58:56.393Z,5.68
2022-09-06T20:01:26.280Z,5.28
2022-09-06T20:03:53.889Z,4.93
2022-09-06T20:06:22.522Z,5.38
2022-09-06T20:08:51.930Z,5.90
2022-09-06T20:11:20.743Z,5.60
2022-09-06T20:13:48.331Z,5.07
2022-09-06T20:16:17.945Z,5.63
2022-09-06T20:18:46.604Z,5.60
2022-09-06T20:21:15.172Z,5.40
2022-09-06T20:23:42.569Z,4.72
2022-09-06T20:26:13.421Z,5.35
2022-09-06T20:28:40.787Z,4.65
2022-09-06T20:31:10.992Z,4.95
2022-09-06T20:33:38.462Z,5.32
2022-09-06T20:36:08.287Z,5.03
2022-09-06T20:38:38.288Z,5.65
2022-09-06T20:41:06.976Z,5.35
2022-09-06T20:43:36.778Z,5.63
2022-09-06T20:46:17.055Z,5.57
2022-09-06T20:48:45.376Z,5.68
2022-09-06T20:51:19.329Z,5.35
2022-09-06T20:54:05.831Z,5.38
2022-09-06T20:56:36.489Z,5.63
2022-09-06T20:59:05.635Z,6.00
2022-09-06T21:01:35.843Z,5.68
2022-09-06T21:04:06.383Z,5.25
2022-09-06T21:06:35.680Z,5.43
2022-09-06T21:09:11.367Z,5.53
2022-09-06T21:11:38.849Z,7.45
2022-09-06T21:14:07.537Z,7.65
2022-09-06T21:16:34.574Z,5.40
2022-09-06T21:19:03.706Z,5.60
2022-09-06T21:21:31.876Z,5.38
2022-09-06T21:24:04.742Z,5.80
2022-09-06T21:26:31.924Z,5.57
2022-09-06T21:28:59.096Z,6.15
2022-09-06T21:31:28.656Z,6.30
2022-09-06T21:33:57.976Z,5.70
2022-09-06T21:36:36.600Z,6.07
2022-09-06T21:39:06.332Z,5.95
2022-09-06T21:41:36.735Z,5.65
2022-09-06T21:44:05.450Z,5.70
2022-09-06T21:46:35.872Z,5.53
2022-09-06T21:49:05.160Z,5.80
2022-09-06T21:51:32.748Z,5.88
2022-09-06T21:54:03.302Z,6.22
2022-09-06T21:56:31.102Z,5.72
2022-09-06T21:58:58.772Z,5.97
2022-09-06T22:01:31.745Z,5.60
2022-09-06T22:03:59.249Z,5.70
2022-09-06T22:06:31.026Z,5.85
2022-09-06T22:09:00.195Z,5.85
2022-09-06T22:11:37.083Z,5.65
2022-09-06T22:14:06.693Z,6.00
2022-09-06T22:16:35.961Z,5.65
2022-09-06T22:19:04.858Z,5.57
2022-09-06T22:21:33.154Z,5.70
2022-09-06T22:24:04.400Z,5.32
2022-09-06T22:26:33.116Z,5.40
2022-09-06T22:29:02.536Z,6.30
2022-09-06T22:31:31.430Z,5.73
2022-09-06T22:33:59.126Z,7.10
2022-09-06T22:36:26.337Z,5.63
2022-09-06T22:38:57.482Z,5.68
2022-09-06T22:41:26.311Z,5.40
2022-09-06T22:43:53.544Z,5.97
2022-09-06T22:46:21.134Z,5.78
2022-09-06T22:48:49.255Z,6.35
2022-09-06T22:51:16.314Z,5.90
2022-09-06T22:53:43.130Z,6.30
2022-09-06T22:56:10.116Z,6.00
2022-09-06T22:58:37.248Z,5.57
2022-09-06T23:01:12.577Z,5.45
2022-09-06T23:03:40.692Z,6.10
2022-09-06T23:06:07.921Z,5.93
2022-09-06T23:08:37.075Z,5.90
2022-09-06T23:11:15.320Z,5.93
2022-09-06T23:13:46.998Z,5.90
2022-09-06T23:16:18.281Z,5.90
2022-09-06T23:18:45.938Z,6.00
2022-09-06T23:21:20.173Z,5.55
2022-09-06T23:23:48.984Z,5.80
2022-09-06T23:26:21.683Z,5.83
2022-09-06T23:28:56.862Z,5.90
2022-09-06T23:31:26.051Z,5.70
2022-09-06T23:33:57.707Z,5.82
2022-09-06T23:36:24.650Z,6.03
2022-09-06T23:38:52.285Z,6.03
2022-09-06T23:41:19.252Z,6.70
2022-09-06T23:43:46.170Z,6.00
2022-09-06T23:46:14.977Z,8.53
2022-09-06T23:48:43.234Z,5.82
2022-09-06T23:51:10.855Z,6.15
2022-09-06T23:53:38.103Z,6.27
2022-09-06T23:56:05.463Z,5.75
2022-09-06T23:58:32.435Z,6.13
